Time;durP1;ratioP1;P1;durP2;ratioP2;P2;SDS_P1;SDS_P2;PMS_P1;PMS_P2;Temp;Humidity;BMP_temperature;BMP_pressure;BME280_temperature;BME280_humidity;BME280_pressure;Samples;Min_cycle;Max_cycle;Signal;HPM_P1;HPM_P2
2021/03/10 00:00:58;;;;;;;10.20;4.75;;;-0.70;99.90;;;;;;5092770;28;20193;-71
2021/03/10 00:03:25;;;;;;;4.10;3.35;;;-0.70;99.90;;;;;;5111210;28;20205;-71
2021/03/10 00:05:53;;;;;;;6.57;4.68;;;-0.60;99.90;;;;;;5111109;28;20251;-71
2021/03/10 00:08:20;;;;;;;8.27;5.00;;;-0.60;99.90;;;;;;5092747;28;20194;-69
2021/03/10 00:10:47;;;;;;;5.93;2.78;;;-0.70;99.90;;;;;;5111655;28;20198;-69
2021/03/10 00:13:14;;;;;;;11.20;6.53;;;-0.70;99.90;;;;;;5111201;28;20249;-70
2021/03/10 00:15:42;;;;;;;8.40;5.25;;;-0.80;99.90;;;;;;5110979;28;20214;-70
2021/03/10 00:18:13;;;;;;;4.13;3.72;;;-0.80;99.90;;;;;;5111470;28;20183;-70
2021/03/10 00:20:40;;;;;;;10.00;4.95;;;-0.90;99.90;;;;;;5093285;28;20191;-70
2021/03/10 00:23:07;;;;;;;8.60;3.92;;;-0.90;99.90;;;;;;5111220;28;20596;-71
2021/03/10 00:25:35;;;;;;;6.22;3.72;;;-1.00;99.90;;;;;;5111014;28;20187;-70
2021/03/10 00:28:02;;;;;;;4.65;3.90;;;-1.00;99.90;;;;;;5114265;28;20528;-70
2021/03/10 00:30:29;;;;;;;14.35;4.32;;;-1.10;99.90;;;;;;5115573;28;20205;-71
2021/03/10 00:32:57;;;;;;;5.25;4.75;;;-1.20;99.90;;;;;;5115763;28;20601;-70
2021/03/10 00:35:28;;;;;;;4.78;4.28;;;-1.20;99.90;;;;;;5115842;28;20174;-71
2021/03/10 00:38:01;;;;;;;7.32;5.72;;;-1.20;99.90;;;;;;5116535;28;20692;-69
2021/03/10 00:40:29;;;;;;;8.80;4.65;;;-1.20;99.90;;;;;;5116170;28;20266;-70
2021/03/10 00:42:56;;;;;;;6.05;4.13;;;-1.10;99.90;;;;;;5098303;28;20596;-71
2021/03/10 00:45:23;;;;;;;7.88;4.15;;;-1.00;99.90;;;;;;5108082;28;20209;-71
2021/03/10 00:47:50;;;;;;;4.38;3.35;;;-1.00;99.90;;;;;;5120357;28;20206;-71
2021/03/10 00:50:20;;;;;;;8.82;4.35;;;-1.00;99.90;;;;;;5117742;28;20183;-71
2021/03/10 00:52:47;;;;;;;7.88;4.53;;;-0.90;99.90;;;;;;5117737;28;20190;-71
2021/03/10 00:55:15;;;;;;;4.03;3.70;;;-0.90;99.90;;;;;;5117449;28;20448;-71
2021/03/10 00:57:43;;;;;;;3.63;3.08;;;-0.90;99.90;;;;;;5115145;28;20210;-70
2021/03/10 01:00:12;;;;;;;4.28;3.03;;;-1.00;99.90;;;;;;5097334;28;20193;-71
2021/03/10 01:02:39;;;;;;;6.50;2.95;;;-1.00;99.90;;;;;;5114944;28;20167;-70
2021/03/10 01:05:08;;;;;;;2.97;2.78;;;-1.10;99.90;;;;;;5114923;28;20167;-70
2021/03/10 01:07:36;;;;;;;3.42;2.50;;;-1.10;99.90;;;;;;5114750;28;20210;-70
2021/03/10 01:10:04;;;;;;;4.13;3.63;;;-1.20;99.90;;;;;;5114601;28;20174;-71
2021/03/10 01:12:31;;;;;;;3.85;2.70;;;-1.20;99.90;;;;;;5096579;28;20190;-70
2021/03/10 01:14:58;;;;;;;4.90;4.40;;;-1.30;99.90;;;;;;5114927;28;20187;-70
2021/03/10 01:17:25;;;;;;;7.93;3.50;;;-1.30;99.90;;;;;;5114456;28;20682;-71
2021/03/10 01:19:53;;;;;;;3.15;2.72;;;-1.20;99.90;;;;;;5114945;28;20727;-69
2021/03/10 01:22:20;;;;;;;5.40;2.15;;;-1.20;99.90;;;;;;5114643;28;20182;-70
2021/03/10 01:24:48;;;;;;;5.82;2.55;;;-1.20;99.90;;;;;;5114533;28;20232;-70
2021/03/10 01:27:17;;;;;;;3.65;2.90;;;-1.20;99.90;;;;;;5114363;28;20202;-70
2021/03/10 01:29:45;;;;;;;7.13;3.65;;;-1.20;99.90;;;;;;5114639;28;20167;-70
2021/03/10 01:32:14;;;;;;;4.60;3.05;;;-1.30;99.90;;;;;;5114779;28;20254;-70
2021/03/10 01:34:41;;;;;;;4.18;2.10;;;-1.40;99.90;;;;;;5114277;28;20190;-71
2021/03/10 01:37:09;;;;;;;5.28;3.25;;;-1.40;99.90;;;;;;5114574;28;20202;-69
2021/03/10 01:39:36;;;;;;;3.65;2.47;;;-1.50;99.90;;;;;;5113482;28;20189;-70
2021/03/10 01:42:04;;;;;;;5.50;2.78;;;-1.50;99.90;;;;;;5114337;28;20194;-70
2021/03/10 01:44:32;;;;;;;5.95;2.78;;;-1.60;99.90;;;;;;5114278;28;20549;-70
2021/03/10 01:46:59;;;;;;;5.47;4.97;;;-1.70;99.90;;;;;;5114121;28;20202;-69
2021/03/10 01:49:27;;;;;;;4.50;2.70;;;-1.70;99.90;;;;;;5114201;28;20182;-70
2021/03/10 01:51:55;;;;;;;2.90;2.58;;;-1.70;99.90;;;;;;5135657;22;20231;-78
2021/03/10 01:54:22;;;;;;;3.42;2.33;;;-1.70;99.90;;;;;;5077182;28;20346;-79
2021/03/10 01:56:50;;;;;;;7.15;3.40;;;-1.80;99.90;;;;;;5058676;28;20219;-78
2021/03/10 01:59:18;;;;;;;3.38;2.80;;;-1.80;99.90;;;;;;5076859;28;20222;-78
2021/03/10 02:01:45;;;;;;;6.68;3.50;;;-1.80;99.90;;;;;;5067369;28;20287;-78
2021/03/10 02:04:16;;;;;;;4.07;2.33;;;-1.80;99.90;;;;;;5038489;28;20200;-78
2021/03/10 02:06:54;;;;;;;2.95;2.65;;;-1.80;99.90;;;;;;5056861;28;20207;-78
2021/03/10 02:09:27;;;;;;;11.48;5.55;;;-1.80;99.90;;;;;;5056970;28;20177;-78
2021/03/10 02:12:02;;;;;;;6.22;3.90;;;-1.70;99.90;;;;;;5038276;28;20433;-78
2021/03/10 02:14:38;;;;;;;9.93;4.32;;;-1.70;99.90;;;;;;5058097;28;20180;-77
2021/03/10 02:17:10;;;;;;;3.63;3.28;;;-1.60;99.90;;;;;;5039542;28;20212;-77
2021/03/10 02:20:06;;;;;;;4.53;4.13;;;-1.60;99.90;;;;;;5039069;28;20211;-77
2021/03/10 02:22:57;;;;;;;3.08;2.42;;;-1.50;99.90;;;;;;5064424;28;20303;-79
2021/03/10 02:25:36;;;;;;;4.50;3.80;;;-1.50;99.90;;;;;;5053487;28;20801;-77
2021/03/10 02:28:06;;;;;;;10.05;3.20;;;-1.60;99.90;;;;;;5054689;28;20169;-77
2021/03/10 02:30:37;;;;;;;14.55;4.38;;;-1.60;99.90;;;;;;5054720;28;20581;-77
2021/03/10 02:33:10;;;;;;;7.50;4.97;;;-1.50;99.90;;;;;;5055235;28;20695;-77
2021/03/10 02:35:42;;;;;;;6.65;3.20;;;-1.50;99.90;;;;;;5055692;28;20200;-79
2021/03/10 02:38:13;;;;;;;5.93;3.65;;;-1.60;99.90;;;;;;5057306;28;20189;-78
2021/03/10 02:40:41;;;;;;;2.78;2.53;;;-1.60;99.90;;;;;;5040076;28;20193;-78
2021/03/10 02:43:10;;;;;;;4.57;4.18;;;-1.60;99.90;;;;;;5060330;28;20679;-78
2021/03/10 02:45:37;;;;;;;5.93;3.85;;;-1.60;99.90;;;;;;5063786;28;20185;-78
2021/03/10 02:48:07;;;;;;;5.35;3.00;;;-1.60;99.90;;;;;;5065351;28;20173;-77
2021/03/10 02:50:35;;;;;;;3.67;2.97;;;-1.60;99.90;;;;;;5047277;28;20198;-78
2021/03/10 02:53:04;;;;;;;3.85;2.65;;;-1.60;99.90;;;;;;5066478;28;20196;-78
2021/03/10 02:55:32;;;;;;;2.75;2.35;;;-1.60;99.90;;;;;;5069404;28;20188;-78
2021/03/10 02:58:00;;;;;;;4.30;2.45;;;-1.70;99.90;;;;;;5066571;28;20606;-77
2021/03/10 03:00:30;;;;;;;6.47;4.45;;;-1.60;99.90;;;;;;5069279;28;20193;-77
2021/03/10 03:02:58;;;;;;;3.13;2.88;;;-1.60;99.90;;;;;;5037982;28;20185;-77
2021/03/10 03:05:25;;;;;;;3.63;3.13;;;-1.60;99.90;;;;;;5036558;28;20224;-77
2021/03/10 03:07:53;;;;;;;7.20;3.25;;;-1.50;99.90;;;;;;5054576;28;20180;-77
2021/03/10 03:10:24;;;;;;;8.77;3.00;;;-1.60;99.90;;;;;;5054372;28;20204;-77
2021/03/10 03:12:52;;;;;;;3.95;3.65;;;-1.60;99.90;;;;;;5054226;28;20230;-77
2021/03/10 03:15:24;;;;;;;9.57;4.68;;;-1.60;99.90;;;;;;5055980;28;20170;-78
2021/03/10 03:17:52;;;;;;;4.03;2.28;;;-1.60;99.90;;;;;;5055118;28;20193;-78
2021/03/10 03:20:21;;;;;;;3.20;3.00;;;-1.60;99.90;;;;;;5055682;28;20247;-77
2021/03/10 03:22:51;;;;;;;2.60;2.33;;;-1.60;99.90;;;;;;5037371;28;20589;-77
2021/03/10 03:25:20;;;;;;;2.15;1.92;;;-1.60;99.90;;;;;;5055846;28;20177;-78
2021/03/10 03:27:51;;;;;;;4.97;3.40;;;-1.60;99.90;;;;;;5055907;28;20169;-78
2021/03/10 03:30:19;;;;;;;2.97;2.17;;;-1.60;99.90;;;;;;5056058;28;20188;-78
2021/03/10 03:32:46;;;;;;;6.32;4.07;;;-1.70;99.90;;;;;;5037839;28;20212;-78
2021/03/10 03:35:17;;;;;;;4.60;2.50;;;-1.70;99.90;;;;;;5056383;28;20177;-80
2021/03/10 03:37:45;;;;;;;2.90;2.70;;;-1.70;99.90;;;;;;5056877;28;20193;-79
2021/03/10 03:40:13;;;;;;;1.73;1.63;;;-1.70;99.90;;;;;;5037881;28;20185;-79
2021/03/10 03:42:41;;;;;;;8.63;3.88;;;-1.70;99.90;;;;;;5039980;28;20646;-79
2021/03/10 03:45:09;;;;;;;5.70;3.78;;;-1.70;99.90;;;;;;5042154;28;20288;-78
2021/03/10 03:47:40;;;;;;;2.95;2.55;;;-1.80;99.90;;;;;;5058840;28;20165;-79
2021/03/10 03:50:10;;;;;;;2.28;1.77;;;-1.70;99.90;;;;;;5057504;28;20173;-79
2021/03/10 03:52:40;;;;;;;12.38;4.35;;;-1.70;99.90;;;;;;5057344;28;20212;-79
2021/03/10 03:55:09;;;;;;;3.35;3.05;;;-1.70;99.90;;;;;;5058360;28;20624;-78
2021/03/10 03:57:36;;;;;;;8.27;2.50;;;-1.70;99.90;;;;;;5056323;28;20197;-78
2021/03/10 04:00:05;;;;;;;8.95;3.90;;;-1.80;99.90;;;;;;5037282;28;20228;-78
2021/03/10 04:02:38;;;;;;;7.45;3.97;;;-1.80;99.90;;;;;;5059358;28;20366;-77
2021/03/10 04:05:06;;;;;;;6.38;3.97;;;-1.80;99.90;;;;;;5059629;28;20703;-78
2021/03/10 04:07:34;;;;;;;4.65;3.17;;;-1.80;99.90;;;;;;5041664;28;20185;-78
2021/03/10 04:10:03;;;;;;;3.65;3.35;;;-1.90;99.90;;;;;;5041676;28;20643;-78
2021/03/10 04:12:30;;;;;;;3.67;3.35;;;-1.90;99.90;;;;;;5042612;28;20331;-79
2021/03/10 04:14:57;;;;;;;8.48;5.25;;;-1.90;99.90;;;;;;5068255;28;20177;-78
2021/03/10 04:17:25;;;;;;;7.30;3.75;;;-2.00;99.90;;;;;;5073873;28;20228;-78
2021/03/10 04:19:55;;;;;;;4.90;3.90;;;-2.00;99.90;;;;;;5052274;28;20228;-78
2021/03/10 04:22:23;;;;;;;6.47;2.83;;;-2.00;99.90;;;;;;5046600;28;20213;-77
2021/03/10 04:24:50;;;;;;;5.10;3.97;;;-2.00;99.90;;;;;;5043406;28;20189;-78
2021/03/10 04:27:18;;;;;;;16.00;5.72;;;-2.00;99.90;;;;;;5060743;28;20695;-78
2021/03/10 04:29:45;;;;;;;8.23;6.03;;;-2.00;99.90;;;;;;5059499;28;20729;-78
2021/03/10 04:32:13;;;;;;;4.10;3.10;;;-1.90;99.90;;;;;;5060590;28;20589;-79
2021/03/10 04:34:40;;;;;;;9.48;2.72;;;-2.00;99.90;;;;;;5060949;28;20177;-80
2021/03/10 04:37:07;;;;;;;5.45;3.15;;;-2.00;99.90;;;;;;5059660;28;20299;-78
2021/03/10 04:39:35;;;;;;;4.43;3.67;;;-2.00;99.90;;;;;;5061597;28;20177;-78
2021/03/10 04:42:02;;;;;;;7.35;6.45;;;-2.10;99.90;;;;;;5061373;28;20644;-79
2021/03/10 04:44:30;;;;;;;8.90;5.15;;;-2.10;99.90;;;;;;5063736;28;20157;-79
2021/03/10 04:47:00;;;;;;;7.28;3.08;;;-2.10;99.90;;;;;;5043714;28;20187;-79
2021/03/10 04:49:27;;;;;;;15.00;3.50;;;-2.10;99.90;;;;;;5061774;28;20180;-78
2021/03/10 04:51:55;;;;;;;8.00;5.25;;;-2.20;99.90;;;;;;5043790;28;20238;-78
2021/03/10 04:54:22;;;;;;;3.83;2.75;;;-2.20;99.90;;;;;;5046480;28;20189;-78
2021/03/10 04:56:49;;;;;;;7.03;4.47;;;-2.20;99.90;;;;;;5063612;28;20275;-78
2021/03/10 04:59:16;;;;;;;11.65;4.85;;;-2.20;99.90;;;;;;5061926;28;20268;-78
2021/03/10 05:01:44;;;;;;;4.43;2.92;;;-2.20;99.90;;;;;;5043533;28;20252;-79
2021/03/10 05:04:32;;;;;;;8.73;5.75;;;-2.20;99.90;;;;;;5064002;28;20173;-79
2021/03/10 05:06:59;;;;;;;3.53;2.78;;;-2.10;99.90;;;;;;5061832;28;20543;-79
2021/03/10 05:09:27;;;;;;;6.43;4.72;;;-2.10;99.90;;;;;;5060739;28;20183;-78
2021/03/10 05:11:54;;;;;;;5.57;3.83;;;-2.20;99.90;;;;;;5061689;28;20201;-79
2021/03/10 05:14:22;;;;;;;12.85;4.78;;;-2.30;99.90;;;;;;5043187;28;20251;-79
2021/03/10 05:16:50;;;;;;;7.97;4.55;;;-2.40;99.90;;;;;;5062841;28;20196;-79
2021/03/10 05:19:18;;;;;;;7.43;3.55;;;-2.40;99.90;;;;;;5060325;28;20177;-77
2021/03/10 05:21:45;;;;;;;13.57;5.05;;;-2.40;99.90;;;;;;5042639;28;20276;-78
2021/03/10 05:24:12;;;;;;;5.90;3.08;;;-2.40;99.90;;;;;;5043739;28;20395;-79
2021/03/10 05:26:40;;;;;;;6.57;3.53;;;-2.30;99.90;;;;;;5062139;28;20272;-77
2021/03/10 05:29:08;;;;;;;4.65;3.63;;;-2.30;99.90;;;;;;5062398;28;20693;-77
2021/03/10 05:31:35;;;;;;;9.65;4.95;;;-2.30;99.90;;;;;;5060490;28;20224;-81
2021/03/10 05:34:03;;;;;;;7.15;5.55;;;-2.10;99.90;;;;;;5042274;28;20196;-78
2021/03/10 05:36:31;;;;;;;17.23;5.35;;;-2.10;99.90;;;;;;5062132;28;20565;-78
2021/03/10 05:39:13;;;;;;;4.32;3.70;;;-2.10;99.90;;;;;;5060130;28;20204;-78
2021/03/10 05:41:41;;;;;;;15.48;3.88;;;-2.10;99.90;;;;;;5059991;28;20578;-79
2021/03/10 05:44:09;;;;;;;5.95;3.55;;;-2.10;99.90;;;;;;5059991;28;20173;-79
2021/03/10 05:46:38;;;;;;;6.95;4.35;;;-2.10;99.90;;;;;;5059593;28;20169;-77
2021/03/10 05:49:07;;;;;;;6.22;4.07;;;-2.10;99.90;;;;;;5059542;28;20184;-78
2021/03/10 05:51:35;;;;;;;7.63;4.18;;;-2.10;99.90;;;;;;5060761;28;20220;-78
2021/03/10 05:54:04;;;;;;;7.15;5.13;;;-2.00;99.90;;;;;;5062432;28;20185;-79
2021/03/10 05:56:32;;;;;;;12.88;6.22;;;-2.00;99.90;;;;;;5043416;28;20220;-78
2021/03/10 05:59:01;;;;;;;14.85;6.10;;;-2.10;99.90;;;;;;5059412;28;20185;-77
2021/03/10 06:01:28;;;;;;;9.38;4.82;;;-2.10;99.90;;;;;;5059867;28;20201;-76
2021/03/10 06:03:58;;;;;;;4.68;3.53;;;-2.00;99.90;;;;;;5059849;28;20248;-78
2021/03/10 06:06:33;;;;;;;10.02;4.65;;;-1.90;99.90;;;;;;5041552;28;20193;-78
2021/03/10 06:09:10;;;;;;;9.30;6.32;;;-1.90;99.90;;;;;;5059544;28;20256;-79
2021/03/10 06:11:38;;;;;;;8.65;4.80;;;-1.90;99.90;;;;;;5058991;28;20212;-79
2021/03/10 06:14:15;;;;;;;5.25;4.43;;;-1.80;99.90;;;;;;5041096;28;20196;-79
2021/03/10 06:16:43;;;;;;;11.93;4.70;;;-1.80;99.90;;;;;;5042526;28;20269;-79
2021/03/10 06:19:10;;;;;;;7.38;5.32;;;-1.70;99.90;;;;;;5048413;28;20200;-76
2021/03/10 06:21:49;;;;;;;5.90;4.68;;;-1.70;99.90;;;;;;5058654;28;20266;-78
2021/03/10 06:24:16;;;;;;;11.63;5.90;;;-1.70;99.90;;;;;;5057971;28;20181;-77
2021/03/10 06:26:54;;;;;;;10.32;6.45;;;-1.70;99.90;;;;;;5057919;28;20181;-80
2021/03/10 06:29:21;;;;;;;7.72;6.55;;;-1.60;99.90;;;;;;5058774;28;20203;-79
2021/03/10 06:31:48;;;;;;;8.75;4.82;;;-1.50;99.90;;;;;;5058893;28;20303;-78
2021/03/10 06:34:16;;;;;;;17.02;8.13;;;-1.40;99.90;;;;;;5059190;28;20182;-79
2021/03/10 06:36:48;;;;;;;9.57;8.55;;;-1.40;99.90;;;;;;5058358;28;20196;-79
2021/03/10 06:39:25;;;;;;;18.88;9.48;;;-1.30;99.90;;;;;;5058697;28;20181;-79
2021/03/10 06:41:53;;;;;;;21.58;13.52;;;-1.20;99.90;;;;;;5040938;28;20247;-79
2021/03/10 06:44:22;;;;;;;17.63;13.02;;;-1.10;99.90;;;;;;5058036;28;20189;-80
2021/03/10 06:46:55;;;;;;;17.15;11.05;;;-1.00;99.90;;;;;;5039758;28;20223;-78
2021/03/10 06:49:23;;;;;;;13.68;7.20;;;-0.90;99.90;;;;;;5039987;28;20209;-78
2021/03/10 06:51:56;;;;;;;9.32;8.40;;;-0.80;99.90;;;;;;5039375;28;20216;-77
2021/03/10 06:54:23;;;;;;;8.90;6.28;;;-0.70;99.90;;;;;;5056382;28;20183;-77
2021/03/10 06:57:01;;;;;;;7.38;6.70;;;-0.60;99.90;;;;;;5057350;28;20235;-76
2021/03/10 06:59:39;;;;;;;17.83;8.50;;;-0.50;99.90;;;;;;5058688;28;20172;-77
2021/03/10 07:02:12;;;;;;;8.82;6.18;;;-0.30;99.90;;;;;;5066047;28;20205;-78
2021/03/10 07:04:41;;;;;;;10.82;5.82;;;-0.10;99.90;;;;;;5071617;28;20173;-78
2021/03/10 07:07:09;;;;;;;14.98;7.20;;;0.10;99.90;;;;;;5047589;28;20189;-77
2021/03/10 07:09:38;;;;;;;8.20;5.93;;;0.20;99.90;;;;;;5072368;28;20268;-77
2021/03/10 07:12:07;;;;;;;12.80;6.57;;;0.40;99.90;;;;;;5057548;28;20220;-79
2021/03/10 07:14:35;;;;;;;9.02;6.30;;;0.60;99.90;;;;;;5074959;28;20621;-79
2021/03/10 07:17:05;;;;;;;17.50;9.15;;;0.70;99.90;;;;;;5076142;28;20209;-78
2021/03/10 07:19:33;;;;;;;14.35;9.25;;;0.90;99.90;;;;;;5076291;28;20169;-78
2021/03/10 07:22:03;;;;;;;10.27;7.45;;;1.00;99.90;;;;;;5057767;28;20189;-79
2021/03/10 07:24:37;;;;;;;8.75;6.65;;;1.20;99.90;;;;;;5071787;28;20199;-78
2021/03/10 07:27:08;;;;;;;14.13;7.38;;;1.30;99.90;;;;;;5072452;28;20184;-78
2021/03/10 07:29:37;;;;;;;8.05;5.80;;;1.50;99.90;;;;;;5048573;28;20207;-78
2021/03/10 07:32:07;;;;;;;14.27;7.75;;;1.60;99.90;;;;;;5043149;28;20208;-79
2021/03/10 07:34:35;;;;;;;10.60;8.35;;;1.70;99.90;;;;;;5059560;28;20203;-79
2021/03/10 07:37:12;;;;;;;12.77;8.55;;;1.90;99.90;;;;;;5058557;28;20200;-79
2021/03/10 07:39:40;;;;;;;14.30;7.15;;;1.90;99.90;;;;;;5058606;28;20615;-81
2021/03/10 07:42:09;;;;;;;11.85;8.25;;;2.00;99.90;;;;;;5059126;28;20231;-80
2021/03/10 07:44:43;;;;;;;7.43;5.65;;;2.10;99.90;;;;;;5058778;28;20199;-81
2021/03/10 07:47:13;;;;;;;9.85;7.85;;;2.20;99.90;;;;;;5040585;28;20231;-78
2021/03/10 07:49:42;;;;;;;11.40;8.27;;;2.30;99.90;;;;;;5057949;28;20177;-80
2021/03/10 07:52:11;;;;;;;13.98;6.75;;;2.40;99.90;;;;;;5252318;22;20718;-71
2021/03/10 07:54:40;;;;;;;10.63;6.63;;;2.50;99.90;;;;;;5113486;28;20174;-73
2021/03/10 07:57:09;;;;;;;10.02;7.43;;;2.70;99.90;;;;;;5126368;28;20202;-72
2021/03/10 07:59:37;;;;;;;14.65;9.63;;;2.80;99.90;;;;;;5113998;28;20212;-74
2021/03/10 08:02:06;;;;;;;16.77;8.48;;;3.00;99.90;;;;;;5132596;28;20171;-72
2021/03/10 08:04:34;;;;;;;14.43;7.72;;;3.10;99.90;;;;;;5132754;28;20250;-70
2021/03/10 08:07:02;;;;;;;15.65;8.25;;;3.10;99.90;;;;;;5132980;28;20213;-70
2021/03/10 08:09:30;;;;;;;15.02;7.00;;;3.20;99.90;;;;;;5132682;28;20178;-69
2021/03/10 08:12:06;;;;;;;11.40;7.20;;;3.20;99.90;;;;;;5133208;28;20177;-70
2021/03/10 08:14:39;;;;;;;12.43;8.18;;;3.10;99.90;;;;;;5133676;28;20178;-70
2021/03/10 08:17:07;;;;;;;15.27;8.30;;;3.10;99.90;;;;;;5116666;28;20267;-70
2021/03/10 08:19:35;;;;;;;11.85;8.05;;;3.10;99.90;;;;;;5135895;28;20174;-70
2021/03/10 08:22:03;;;;;;;13.00;6.82;;;3.30;99.90;;;;;;5136180;28;20170;-70
2021/03/10 08:24:31;;;;;;;8.48;6.82;;;3.40;99.90;;;;;;5136079;28;20256;-70
2021/03/10 08:26:59;;;;;;;10.55;5.88;;;3.40;99.90;;;;;;5132778;28;20345;-71
2021/03/10 08:29:30;;;;;;;10.65;7.70;;;3.50;99.90;;;;;;5132525;28;20186;-71
2021/03/10 08:31:58;;;;;;;11.93;7.47;;;3.70;99.90;;;;;;5132996;28;20189;-70
2021/03/10 08:34:34;;;;;;;9.95;6.50;;;3.70;99.90;;;;;;5132760;28;20259;-71
2021/03/10 08:37:06;;;;;;;14.23;6.55;;;3.80;99.90;;;;;;5132929;28;20209;-71
2021/03/10 08:39:33;;;;;;;14.00;6.70;;;3.80;99.90;;;;;;5132071;28;20181;-72
2021/03/10 08:42:00;;;;;;;5.00;4.50;;;4.00;99.90;;;;;;5132501;28;20174;-71
2021/03/10 08:44:38;;;;;;;14.30;6.55;;;4.20;99.90;;;;;;5132501;28;20182;-72
2021/03/10 08:47:11;;;;;;;5.85;5.30;;;4.40;99.90;;;;;;5132732;27;20658;-72
2021/03/10 08:49:39;;;;;;;10.13;6.38;;;4.50;99.90;;;;;;5136196;27;20598;-71
2021/03/10 08:52:09;;;;;;;8.50;7.25;;;4.70;99.90;;;;;;5136256;27;20240;-70
2021/03/10 08:54:52;;;;;;;9.70;6.28;;;4.80;99.90;;;;;;5117434;27;20646;-73
2021/03/10 08:57:21;;;;;;;8.35;6.70;;;4.80;99.90;;;;;;5135821;27;20202;-72
2021/03/10 08:59:49;;;;;;;11.93;7.43;;;5.00;99.90;;;;;;5116751;27;20194;-71
2021/03/10 09:02:25;;;;;;;9.15;5.88;;;5.10;99.90;;;;;;5117636;27;20707;-69
2021/03/10 09:04:53;;;;;;;9.20;6.38;;;5.30;99.90;;;;;;5117275;27;20268;-69
2021/03/10 09:07:23;;;;;;;9.98;5.22;;;5.50;99.90;;;;;;5135964;27;20588;-70
2021/03/10 09:09:55;;;;;;;7.72;6.15;;;5.60;99.90;;;;;;5117470;27;20186;-69
2021/03/10 09:12:23;;;;;;;14.52;6.40;;;5.70;99.90;;;;;;5135791;27;20197;-69
2021/03/10 09:14:58;;;;;;;6.85;5.50;;;5.80;99.90;;;;;;5116897;27;20195;-70
2021/03/10 09:17:31;;;;;;;7.68;5.78;;;5.90;99.90;;;;;;5116813;27;20720;-69
2021/03/10 09:20:02;;;;;;;7.85;5.18;;;5.90;99.90;;;;;;5135011;27;20687;-69
2021/03/10 09:22:32;;;;;;;6.82;6.13;;;5.80;99.90;;;;;;5135326;27;20215;-69
2021/03/10 09:25:22;;;;;;;8.00;5.20;;;5.80;99.90;;;;;;5116327;27;20709;-69
2021/03/10 09:28:06;;;;;;;7.60;5.40;;;6.00;99.90;;;;;;5116871;27;20177;-69
2021/03/10 09:30:40;;;;;;;7.85;6.15;;;6.00;99.90;;;;;;5116955;27;20212;-68
2021/03/10 09:33:17;;;;;;;8.32;6.10;;;6.20;99.90;;;;;;5135414;27;20178;-69
2021/03/10 09:35:53;;;;;;;7.78;6.05;;;6.20;99.90;;;;;;5116482;27;20190;-69
2021/03/10 09:38:21;;;;;;;6.22;5.65;;;6.40;99.90;;;;;;5116590;27;20209;-68
2021/03/10 09:40:51;;;;;;;5.55;4.00;;;6.40;99.90;;;;;;5116275;27;20581;-70
2021/03/10 09:43:21;;;;;;;6.15;4.15;;;6.50;99.90;;;;;;5116581;27;20281;-68
2021/03/10 09:45:55;;;;;;;7.57;4.95;;;6.50;99.90;;;;;;5115831;27;20665;-68
2021/03/10 09:48:29;;;;;;;9.23;4.40;;;6.50;99.90;;;;;;5116226;27;20178;-68
2021/03/10 09:51:06;;;;;;;5.35;3.72;;;6.50;99.90;;;;;;5116861;27;20653;-70
2021/03/10 09:53:41;;;;;;;6.35;4.45;;;6.60;99.90;;;;;;5117439;27;20194;-74
2021/03/10 09:56:13;;;;;;;6.70;4.18;;;6.70;99.90;;;;;;5135806;27;20200;-72
2021/03/10 09:58:48;;;;;;;5.93;3.47;;;6.70;99.90;;;;;;5135715;27;20605;-72
2021/03/10 10:01:21;;;;;;;4.70;3.80;;;6.80;99.90;;;;;;5117659;27;20190;-73
2021/03/10 10:03:49;;;;;;;4.47;3.40;;;7.00;99.90;;;;;;5136159;27;20197;-71
2021/03/10 10:06:20;;;;;;;5.15;3.13;;;7.30;99.90;;;;;;5122545;27;20631;-70
2021/03/10 10:08:51;;;;;;;3.65;3.08;;;7.30;99.90;;;;;;5122097;27;20531;-69
2021/03/10 10:11:21;;;;;;;5.85;3.95;;;7.50;99.90;;;;;;5141450;27;20528;-70
2021/03/10 10:13:50;;;;;;;5.07;3.15;;;7.70;99.90;;;;;;5120230;27;20242;-71
2021/03/10 10:16:20;;;;;;;3.92;3.35;;;7.70;99.90;;;;;;5115983;27;20569;-72
2021/03/10 10:18:50;;;;;;;8.07;4.20;;;7.70;99.90;;;;;;5135199;27;20186;-72
2021/03/10 10:21:18;;;;;;;5.53;3.40;;;7.80;99.90;;;;;;5116486;27;20182;-72
2021/03/10 10:23:48;;;;;;;5.20;4.13;;;7.80;99.90;;;;;;5135253;27;20587;-70
2021/03/10 10:26:19;;;;;;;7.38;4.60;;;8.00;99.90;;;;;;5116265;27;20209;-69
2021/03/10 10:28:49;;;;;;;7.43;5.10;;;7.90;99.90;;;;;;5120532;27;20197;-70
2021/03/10 10:31:41;;;;;;;5.30;3.28;;;8.00;99.90;;;;;;5126051;27;20182;-71
2021/03/10 10:34:09;;;;;;;7.57;5.30;;;8.10;99.90;;;;;;5125983;27;20565;-69
2021/03/10 10:36:38;;;;;;;8.70;4.63;;;7.90;99.90;;;;;;5123783;27;20210;-70
2021/03/10 10:39:19;;;;;;;5.75;4.03;;;8.10;99.90;;;;;;5137745;27;20193;-67
2021/03/10 10:41:46;;;;;;;4.13;3.03;;;8.20;99.90;;;;;;5121401;27;20205;-71
2021/03/10 10:44:17;;;;;;;5.35;3.47;;;8.10;99.90;;;;;;5115981;27;20189;-71
2021/03/10 10:46:46;;;;;;;2.80;2.10;;;8.00;99.90;;;;;;5115748;27;20214;-68
2021/03/10 10:49:14;;;;;;;5.40;3.10;;;8.10;99.90;;;;;;5116158;27;20190;-73
2021/03/10 10:51:43;;;;;;;4.72;3.35;;;8.10;99.90;;;;;;5115027;27;20258;-69
2021/03/10 10:54:33;;;;;;;3.60;2.95;;;7.90;99.90;;;;;;5133577;27;20230;-69
2021/03/10 10:57:01;;;;;;;4.43;3.10;;;7.90;99.90;;;;;;5113757;27;20686;-69
2021/03/10 10:59:33;;;;;;;5.18;3.30;;;8.10;99.90;;;;;;5114325;27;20778;-68
2021/03/10 11:02:07;;;;;;;6.68;3.80;;;8.20;99.90;;;;;;5132056;27;20181;-71
2021/03/10 11:04:38;;;;;;;9.85;3.47;;;8.30;99.90;;;;;;5114570;27;20213;-71
2021/03/10 11:07:09;;;;;;;12.15;4.18;;;8.40;99.90;;;;;;5114677;27;20217;-72
2021/03/10 11:09:39;;;;;;;8.20;3.75;;;8.60;99.90;;;;;;5114387;27;20215;-72
2021/03/10 11:12:12;;;;;;;5.18;3.30;;;8.70;99.90;;;;;;5113686;27;20258;-71
2021/03/10 11:14:44;;;;;;;11.32;4.70;;;8.90;99.90;;;;;;5094881;28;20200;-74
2021/03/10 11:17:26;;;;;;;5.03;3.45;;;8.90;99.90;;;;;;5111605;28;20263;-76
2021/03/10 11:19:58;;;;;;;5.45;4.18;;;8.90;99.90;;;;;;5097826;28;20190;-76
2021/03/10 11:22:26;;;;;;;7.13;3.88;;;8.90;99.90;;;;;;5113876;28;20174;-76
2021/03/10 11:24:55;;;;;;;5.82;3.80;;;8.60;99.90;;;;;;5095427;28;20183;-73
2021/03/10 11:27:23;;;;;;;4.63;3.28;;;8.50;99.90;;;;;;5110643;28;20213;-68
2021/03/10 11:29:52;;;;;;;5.93;3.90;;;8.70;99.90;;;;;;5096300;27;20548;-69
2021/03/10 11:32:21;;;;;;;5.72;3.50;;;8.90;99.90;;;;;;5126127;27;20193;-71
2021/03/10 11:34:49;;;;;;;3.20;2.67;;;9.20;99.90;;;;;;5123194;27;20190;-69
2021/03/10 11:37:17;;;;;;;4.25;2.83;;;9.20;99.90;;;;;;5114029;28;20213;-68
2021/03/10 11:39:46;;;;;;;3.55;3.05;;;9.40;99.90;;;;;;5133493;28;20190;-68
2021/03/10 11:42:15;;;;;;;7.82;3.83;;;9.30;99.90;;;;;;5132596;28;20549;-68
2021/03/10 11:44:42;;;;;;;4.05;3.35;;;9.10;99.90;;;;;;5132906;28;20660;-69
2021/03/10 11:47:09;;;;;;;5.53;3.92;;;9.20;99.90;;;;;;5132690;28;20202;-69
2021/03/10 11:49:37;;;;;;;5.85;3.35;;;9.10;99.90;;;;;;5114015;28;20186;-69
2021/03/10 11:52:06;;;;;;;4.68;2.85;;;9.30;99.90;;;;;;5114243;28;20692;-68
2021/03/10 11:54:33;;;;;;;4.20;2.95;;;9.30;99.90;;;;;;5137744;27;20334;-67
2021/03/10 11:57:01;;;;;;;5.70;3.22;;;9.50;99.90;;;;;;5131969;28;20259;-72
2021/03/10 11:59:28;;;;;;;3.70;2.90;;;9.60;99.90;;;;;;5132354;28;20197;-73
2021/03/10 12:02:07;;;;;;;4.30;3.22;;;9.40;99.90;;;;;;5113942;28;20190;-72
2021/03/10 12:04:39;;;;;;;8.20;2.75;;;9.40;99.90;;;;;;5114170;28;20202;-73
2021/03/10 12:07:11;;;;;;;4.45;2.40;;;9.30;99.90;;;;;;5113679;28;20297;-72
2021/03/10 12:09:38;;;;;;;4.30;2.50;;;9.40;99.90;;;;;;5134807;27;20680;-71
2021/03/10 12:12:09;;;;;;;3.83;2.85;;;9.20;99.90;;;;;;5135128;27;20667;-72
2021/03/10 12:14:47;;;;;;;3.22;2.58;;;9.20;99.90;;;;;;5114088;28;20190;-72
2021/03/10 12:17:15;;;;;;;6.43;3.10;;;9.40;99.90;;;;;;5132023;28;20247;-72
2021/03/10 12:19:43;;;;;;;4.75;3.10;;;9.40;99.90;;;;;;5132319;28;20181;-72
2021/03/10 12:22:11;;;;;;;3.20;2.90;;;9.40;99.90;;;;;;5132240;27;20700;-74
2021/03/10 12:24:39;;;;;;;3.38;2.65;;;9.30;99.90;;;;;;5135977;27;20540;-72
2021/03/10 12:27:07;;;;;;;4.72;3.58;;;9.40;99.90;;;;;;5122798;27;20260;-74
2021/03/10 12:29:36;;;;;;;3.38;2.80;;;9.10;99.90;;;;;;5115376;28;20187;-73
2021/03/10 12:32:04;;;;;;;4.82;3.00;;;9.10;99.90;;;;;;5115434;28;20257;-73
2021/03/10 12:34:31;;;;;;;3.42;2.72;;;9.10;99.90;;;;;;5115272;28;20225;-71
2021/03/10 12:36:58;;;;;;;5.20;3.20;;;9.30;99.90;;;;;;5114780;28;20240;-72
2021/03/10 12:39:26;;;;;;;3.88;2.88;;;9.20;99.90;;;;;;5114347;28;20686;-74
2021/03/10 12:41:54;;;;;;;3.15;2.65;;;9.10;99.90;;;;;;5115479;28;20746;-72
2021/03/10 12:44:25;;;;;;;5.45;3.20;;;9.10;99.90;;;;;;5114999;28;20643;-73
2021/03/10 12:46:52;;;;;;;5.63;3.00;;;9.20;99.90;;;;;;5114956;27;20202;-73
2021/03/10 12:49:20;;;;;;;4.05;2.97;;;9.20;99.90;;;;;;5131354;27;20238;-74
2021/03/10 12:51:47;;;;;;;3.70;2.40;;;9.20;99.90;;;;;;5155877;27;20197;-73
2021/03/10 12:54:14;;;;;;;3.53;2.70;;;9.10;99.90;;;;;;5126148;27;20191;-72
2021/03/10 12:56:42;;;;;;;3.03;2.75;;;9.20;99.90;;;;;;5114724;28;20202;-72
2021/03/10 12:59:09;;;;;;;7.95;3.70;;;9.20;99.90;;;;;;5114398;28;20288;-72
2021/03/10 13:01:37;;;;;;;4.82;3.00;;;9.20;99.90;;;;;;5125527;27;20192;-73
2021/03/10 13:04:05;;;;;;;6.18;3.45;;;9.10;99.90;;;;;;5149465;27;20193;-73